CST,Max TemperatureF,Mean TemperatureF,Min TemperatureF,Max Dew PointF,MeanDew PointF,Min DewpointF,Max Humidity, Mean Humidity, Min Humidity, Max Sea Level PressureIn, Mean Sea Level PressureIn, Min Sea Level PressureIn, Max VisibilityMiles, Mean VisibilityMiles, Min VisibilityMiles, Max Wind SpeedMPH, Mean Wind SpeedMPH, Max Gust SpeedMPH,PrecipitationIn, CloudCover, Events, WindDirDegrees
2012-12-1,73,63,53,61,57,52,94,80,53,30.29,30.25,30.22,10,8,0,13,4,18,0.00,2,Fog,95
2012-12-2,73,62,50,61,55,48,94,83,53,30.32,30.26,30.23,10,7,0,9,2,,0.00,3,Fog,93
2012-12-3,75,63,51,64,58,50,94,84,61,30.28,30.23,30.19,10,7,0,15,3,22,0.00,3,Fog,106
2012-12-4,77,68,60,64,62,59,94,80,61,30.27,30.21,30.17,10,10,5,14,6,18,0.00,1,,132
2012-12-5,73,65,57,63,58,55,94,79,53,30.18,30.12,30.06,10,8,0,12,2,,0.01,2,Fog-Rain,84
2012-12-6,73,64,55,61,58,54,94,78,61,30.06,30.00,29.97,10,7,0,14,6,20,0.00,3,Fog,82
2012-12-7,69,62,55,64,61,54,94,88,78,30.01,29.96,29.93,10,8,0,14,5,17,0.05,6,Fog-Rain,68
2012-12-8,73,63,53,64,60,52,94,84,64,30.03,29.98,29.93,10,7,0,10,5,16,0.00,5,Fog,138
2012-12-9,73,62,51,66,59,50,100,83,65,30.08,30.01,29.95,10,8,0,12,3,,0.00,3,Fog,151
2012-12-10,73,63,53,68,62,48,94,83,73,29.95,29.87,29.79,10,10,2,17,10,23,0.42,4,Rain,223
2012-12-11,53,48,42,48,38,34,88,74,62,30.17,30.05,29.93,10,10,3,10,8,18,0.06,5,Rain,359
2012-12-12,59,48,37,37,33,27,87,64,29,30.27,30.18,30.12,10,10,10,10,6,,0.00,3,,349
2012-12-13,62,50,37,45,36,32,93,70,34,30.34,30.28,30.24,10,9,0,12,5,17,0.00,0,Fog,14
2012-12-14,53,47,41,46,43,39,93,87,72,30.34,30.25,30.16,10,8,0,10,4,,0.00,4,Fog,38
2012-12-15,71,60,50,63,55,45,88,81,68,30.15,30.09,30.02,10,10,10,12,4,,0.00,3,,93
2012-12-16,73,66,60,66,63,55,94,84,73,30.02,29.94,29.88,10,9,0,14,6,20,0.12,5,Fog-Rain,154
2012-12-17,71,66,60,66,61,55,94,86,77,29.89,29.84,29.77,10,8,2,30,10,40,0.44,5,Rain-Thunderstorm,216
2012-12-18,64,53,42,59,46,39,94,75,40,30.05,30.00,29.88,10,9,2,8,4,,0.00,0,,243
2012-12-19,71,56,41,64,52,37,93,76,46,30.10,30.03,29.94,10,10,1,14,4,21,0.00,2,Rain,134
2012-12-20,73,60,46,68,48,21,94,62,24,30.22,29.97,29.85,10,8,2,25,13,33,0.17,4,Rain,258
2012-12-21,55,48,41,30,20,10,61,38,17,30.37,30.30,30.22,10,10,10,15,9,23,0.00,0,,306
2012-12-22,60,45,30,36,27,18,93,61,19,30.43,30.34,30.28,10,10,10,8,2,,0.00,0,,323
2012-12-23,62,48,33,55,44,32,93,75,55,30.27,30.17,30.05,10,10,2,9,2,,0.00,1,,137
2012-12-24,71,65,59,63,61,55,94,85,73,30.04,29.94,29.89,10,7,0,17,8,30,0.00,7,Fog-Rain,210
2012-12-25,71,62,53,64,61,52,94,84,73,29.91,29.78,29.62,10,7,0,24,6,36,0.15,5,Fog-Rain-Thunderstorm,154
2012-12-26,60,48,37,50,34,32,81,63,50,30.16,29.97,29.70,10,10,10,23,15,33,0.12,1,,302
2012-12-27,46,40,33,36,33,30,93,79,61,30.22,30.14,30.08,10,10,2,8,4,,0.00,3,,343
2012-12-28,66,52,39,63,51,36,94,81,63,30.08,29.93,29.76,10,9,3,22,6,31,0.08,4,Rain,124
2012-12-29,60,48,35,59,36,30,94,70,50,30.39,30.15,29.83,10,10,10,17,11,30,0.30,4,,321
2012-12-30,53,42,32,32,28,21,93,67,28,30.51,30.42,30.37,10,10,10,12,4,,0.00,0,,6
2012-12-31,62,50,37,54,42,30,94,74,59,30.36,30.26,30.12,10,9,2,8,4,,0.00,4,,49